Wilmington, Delaware
Current Conditions -  °F | °C
As of 7:51 AM on Wednesday 26 Nov 2014 (Local Time) from KILG Reporting Station
Moderate Rain Moderate Rain  
Wind Chill:   Ceiling: 1600
Heat Index:   Visibility: 3mi
Dew Point:   Wind: 12mph
Humidity: 89%   Direction: 30°NNE
Pressure: 30.08"   Gusts: NA
Location:  39.74°N, 75.55°W
Report Text: KILG 261251Z 03010KT 3SM RA BR BKN016 OVC022 06/04 A3008 RMK AO2 SLP186 P0009 T00560039
Loading
Personal Weather Stations






























Interactive Weather Map New forecast layout! Learn more

10-Day Weather Forecast

Advertisements
Track Severe Weather on mobile